Time;durP1;ratioP1;P1;durP2;ratioP2;P2;SDS_P1;SDS_P2;PMS_P1;PMS_P2;Temp;Humidity;BMP_temperature;BMP_pressure;BME280_temperature;BME280_humidity;BME280_pressure;Samples;Min_cycle;Max_cycle;Signal;HPM_P1;HPM_P2
2020/12/23 00:01:31;;;;;;;1.42;0.80;;;12.60;81.20;;;;;;4979629;28;20089;-68
2020/12/23 00:03:57;;;;;;;1.20;1.10;;;12.60;81.20;;;;;;4978676;28;20031;-67
2020/12/23 00:06:33;;;;;;;2.17;0.98;;;12.60;81.20;;;;;;4978198;28;20019;-67
2020/12/23 00:08:59;;;;;;;1.48;0.82;;;12.60;81.20;;;;;;4976636;28;20027;-67
2020/12/23 00:11:24;;;;;;;0.88;0.80;;;12.60;81.20;;;;;;4984543;28;20058;-67
2020/12/23 00:13:50;;;;;;;1.65;1.00;;;12.60;81.10;;;;;;4979233;28;20064;-65
2020/12/23 00:16:15;;;;;;;1.27;1.10;;;12.50;81.00;;;;;;4980069;28;20126;-67
2020/12/23 00:18:43;;;;;;;1.60;1.02;;;12.50;81.00;;;;;;4978983;28;20041;-67
2020/12/23 00:21:09;;;;;;;1.30;1.00;;;12.50;81.00;;;;;;4979538;28;21311;-66
2020/12/23 00:23:35;;;;;;;2.53;0.95;;;12.40;81.00;;;;;;4980092;28;20046;-67
2020/12/23 00:26:01;;;;;;;1.50;1.10;;;12.40;81.00;;;;;;4979652;28;20090;-66
2020/12/23 00:28:26;;;;;;;1.35;1.25;;;12.40;81.20;;;;;;4979556;28;20426;-67
2020/12/23 00:30:52;;;;;;;1.58;1.27;;;12.30;81.10;;;;;;4978281;28;20063;-67
2020/12/23 00:33:18;;;;;;;1.25;1.15;;;12.30;81.20;;;;;;4979813;28;20035;-67
2020/12/23 00:35:44;;;;;;;1.67;1.42;;;12.30;81.20;;;;;;4979338;28;20061;-67
2020/12/23 00:38:09;;;;;;;1.52;1.38;;;12.30;81.30;;;;;;4994207;28;20039;-67
2020/12/23 00:40:35;;;;;;;1.38;1.10;;;12.20;81.30;;;;;;4977743;28;20141;-66
2020/12/23 00:43:00;;;;;;;1.65;1.30;;;12.20;81.30;;;;;;4979147;28;20043;-66
2020/12/23 00:45:26;;;;;;;1.50;1.40;;;12.10;81.30;;;;;;4977063;28;20034;-66
2020/12/23 00:47:51;;;;;;;1.10;1.00;;;12.20;81.30;;;;;;4977879;28;20430;-67
2020/12/23 00:50:17;;;;;;;1.92;1.30;;;12.10;81.30;;;;;;4978795;28;20065;-66
2020/12/23 00:52:43;;;;;;;1.50;1.40;;;12.10;81.30;;;;;;4977414;28;20038;-68
2020/12/23 00:55:09;;;;;;;2.40;1.30;;;12.10;81.30;;;;;;4977663;28;20066;-67
2020/12/23 00:57:35;;;;;;;1.98;1.20;;;12.00;81.20;;;;;;4978666;28;20130;-67
2020/12/23 01:00:01;;;;;;;1.35;1.25;;;12.00;81.30;;;;;;4977609;28;20508;-67
2020/12/23 01:02:27;;;;;;;1.40;1.30;;;12.00;81.20;;;;;;4992967;28;20097;-67
2020/12/23 01:04:53;;;;;;;1.38;1.27;;;12.00;81.30;;;;;;4976501;28;20493;-68
2020/12/23 01:07:18;;;;;;;1.77;1.40;;;11.90;81.30;;;;;;4978038;28;20358;-67
2020/12/23 01:09:44;;;;;;;1.58;1.20;;;11.90;81.30;;;;;;4977073;28;20038;-67
2020/12/23 01:12:09;;;;;;;1.33;1.23;;;11.80;81.30;;;;;;4982762;28;20037;-67
2020/12/23 01:14:35;;;;;;;2.15;1.40;;;11.80;81.40;;;;;;4981665;28;20053;-67
2020/12/23 01:17:00;;;;;;;2.20;1.65;;;11.80;81.40;;;;;;4982478;28;20022;-67
2020/12/23 01:19:26;;;;;;;1.50;1.40;;;11.70;81.40;;;;;;4982781;28;20034;-67
2020/12/23 01:21:52;;;;;;;2.47;1.05;;;11.70;81.50;;;;;;4982820;28;20406;-67
2020/12/23 01:24:17;;;;;;;1.80;1.40;;;11.70;81.70;;;;;;4983006;28;20034;-67
2020/12/23 01:26:43;;;;;;;1.92;1.48;;;11.70;81.70;;;;;;4982112;28;20037;-67
2020/12/23 01:29:08;;;;;;;1.40;1.30;;;11.70;81.90;;;;;;4981801;28;20153;-66
2020/12/23 01:31:34;;;;;;;1.30;1.10;;;11.70;81.90;;;;;;4981859;28;20034;-67
2020/12/23 01:34:00;;;;;;;1.20;1.10;;;11.70;81.90;;;;;;4981306;28;20181;-67
2020/12/23 01:36:25;;;;;;;1.90;1.40;;;11.70;81.90;;;;;;4982128;28;20034;-67
2020/12/23 01:38:51;;;;;;;1.20;1.10;;;11.70;81.90;;;;;;4980218;28;20034;-67
2020/12/23 01:41:16;;;;;;;1.30;1.20;;;11.70;81.90;;;;;;4980636;28;20031;-67
2020/12/23 01:43:51;;;;;;;1.90;1.30;;;11.70;81.90;;;;;;4981454;28;20123;-66
2020/12/23 01:46:17;;;;;;;;;;;11.70;81.70;;;;;;4982127;28;20513;-67
2020/12/23 01:48:42;;;;;;;1.20;1.10;;;11.70;81.70;;;;;;4980013;28;19948;-67
2020/12/23 01:51:08;;;;;;;1.45;1.10;;;11.70;81.50;;;;;;4981993;28;20037;-67
2020/12/23 01:53:34;;;;;;;1.60;1.05;;;11.70;81.50;;;;;;4981550;28;20101;-67
2020/12/23 01:56:02;;;;;;;4.18;1.17;;;11.70;81.50;;;;;;4981581;28;20030;-67
2020/12/23 01:58:28;;;;;;;1.10;1.00;;;11.70;81.60;;;;;;4996262;28;20441;-66
2020/12/23 02:00:57;;;;;;;0.90;0.90;;;11.70;81.50;;;;;;4983237;28;20495;-68
2020/12/23 02:03:22;;;;;;;1.48;0.90;;;11.70;81.50;;;;;;4980975;28;20044;-66
2020/12/23 02:05:48;;;;;;;1.17;0.98;;;11.70;81.60;;;;;;4981299;28;20524;-67
2020/12/23 02:08:14;;;;;;;1.10;0.95;;;11.70;81.50;;;;;;4981393;28;20035;-67
2020/12/23 02:10:40;;;;;;;1.08;0.93;;;11.70;81.50;;;;;;4981446;28;20030;-67
2020/12/23 02:13:05;;;;;;;1.20;1.10;;;11.70;81.50;;;;;;4981424;28;20707;-66
2020/12/23 02:15:31;;;;;;;1.10;1.00;;;11.70;81.40;;;;;;4996574;28;20042;-65
2020/12/23 02:17:57;;;;;;;1.55;0.95;;;11.70;81.30;;;;;;4981346;28;20070;-67
2020/12/23 02:20:23;;;;;;;0.93;0.80;;;11.70;81.20;;;;;;4980482;28;20039;-67
2020/12/23 02:22:48;;;;;;;0.90;0.80;;;11.70;81.20;;;;;;4981418;28;20088;-66
2020/12/23 02:25:14;;;;;;;1.67;1.10;;;11.70;81.10;;;;;;4981281;28;20030;-66
2020/12/23 02:27:41;;;;;;;1.00;0.90;;;11.70;81.10;;;;;;4981499;28;20047;-65
2020/12/23 02:30:09;;;;;;;0.80;0.80;;;11.70;81.00;;;;;;4980434;28;20043;-68
2020/12/23 02:32:34;;;;;;;0.88;0.80;;;11.70;80.90;;;;;;4980428;28;20068;-67
2020/12/23 02:35:00;;;;;;;2.03;0.90;;;11.70;80.80;;;;;;4980585;28;20035;-66
2020/12/23 02:37:26;;;;;;;1.00;0.85;;;11.70;80.80;;;;;;4980408;28;20092;-67
2020/12/23 02:39:54;;;;;;;1.60;0.90;;;11.70;80.60;;;;;;4980399;28;20042;-65
2020/12/23 02:42:22;;;;;;;1.02;0.90;;;11.70;80.60;;;;;;4980287;28;20499;-64
2020/12/23 02:44:48;;;;;;;1.25;0.90;;;11.70;80.50;;;;;;4980463;28;20417;-67
2020/12/23 02:47:15;;;;;;;1.27;0.90;;;11.70;80.50;;;;;;4980360;28;20042;-67
2020/12/23 02:49:41;;;;;;;1.30;0.88;;;11.60;80.50;;;;;;4980948;28;20041;-64
2020/12/23 02:52:09;;;;;;;2.13;1.13;;;11.70;80.40;;;;;;4980371;28;20074;-67
2020/12/23 02:54:35;;;;;;;1.00;0.90;;;11.60;80.30;;;;;;4979729;28;20085;-67
2020/12/23 02:57:02;;;;;;;1.05;0.93;;;11.70;80.30;;;;;;4980238;28;20613;-67
2020/12/23 02:59:27;;;;;;;0.80;0.77;;;11.60;80.30;;;;;;4978547;28;20673;-67
2020/12/23 03:01:53;;;;;;;1.25;1.00;;;11.60;80.20;;;;;;4981046;28;20030;-67
2020/12/23 03:04:19;;;;;;;0.85;0.80;;;11.60;80.20;;;;;;4978815;28;20034;-67
2020/12/23 03:06:44;;;;;;;1.02;0.93;;;11.70;80.20;;;;;;4980105;28;20048;-67
2020/12/23 03:09:11;;;;;;;1.55;0.80;;;11.60;80.20;;;;;;4980112;28;20050;-67
2020/12/23 03:11:38;;;;;;;1.50;0.95;;;11.60;80.20;;;;;;4979618;28;20042;-66
2020/12/23 03:14:04;;;;;;;0.95;0.85;;;11.70;80.20;;;;;;4979738;28;20030;-67
2020/12/23 03:16:31;;;;;;;1.45;0.85;;;11.60;80.10;;;;;;4979450;28;20477;-67
2020/12/23 03:18:56;;;;;;;1.20;0.90;;;11.70;80.10;;;;;;4980242;28;20042;-67
2020/12/23 03:21:22;;;;;;;1.60;0.85;;;11.80;80.10;;;;;;4978446;28;20058;-67
2020/12/23 03:23:47;;;;;;;3.33;0.80;;;11.70;80.00;;;;;;4980374;28;20061;-67
2020/12/23 03:26:14;;;;;;;0.85;0.85;;;11.70;80.00;;;;;;4979994;28;20026;-67
2020/12/23 03:28:40;;;;;;;0.95;0.88;;;11.70;80.00;;;;;;4979047;28;20046;-66
2020/12/23 03:31:06;;;;;;;0.70;0.70;;;11.60;79.80;;;;;;4980399;28;20023;-67
2020/12/23 03:33:32;;;;;;;0.73;0.73;;;11.60;79.90;;;;;;4979256;28;20032;-67
2020/12/23 03:35:58;;;;;;;1.40;1.00;;;11.70;80.00;;;;;;4980353;28;20480;-67
2020/12/23 03:38:24;;;;;;;1.63;0.90;;;11.70;79.90;;;;;;4979633;28;20093;-68
2020/12/23 03:40:50;;;;;;;2.10;1.00;;;11.70;79.90;;;;;;4980364;28;20483;-68
2020/12/23 03:43:16;;;;;;;1.63;1.10;;;11.70;79.90;;;;;;4979949;28;20022;-67
2020/12/23 03:45:41;;;;;;;1.48;1.23;;;11.60;79.80;;;;;;4979630;28;20034;-66
2020/12/23 03:48:07;;;;;;;1.65;1.00;;;11.60;79.90;;;;;;4979400;28;20082;-67
2020/12/23 03:50:33;;;;;;;1.00;0.80;;;11.60;79.90;;;;;;4978769;28;20034;-67
2020/12/23 03:52:59;;;;;;;1.15;0.80;;;11.70;80.00;;;;;;4979709;28;20042;-66
2020/12/23 03:55:24;;;;;;;0.80;0.80;;;11.60;79.90;;;;;;4977853;28;20063;-67
2020/12/23 03:57:50;;;;;;;1.10;0.70;;;11.70;80.00;;;;;;4979448;28;20104;-68
2020/12/23 04:00:16;;;;;;;1.50;0.65;;;11.70;80.00;;;;;;4979315;28;20533;-67
2020/12/23 04:02:42;;;;;;;1.67;0.80;;;11.70;80.00;;;;;;4978632;28;20031;-67
2020/12/23 04:05:08;;;;;;;1.13;0.65;;;11.70;80.80;;;;;;4979027;28;20413;-66
2020/12/23 04:07:34;;;;;;;0.90;0.73;;;11.70;80.10;;;;;;4977953;28;20512;-67
2020/12/23 04:10:01;;;;;;;1.67;0.60;;;11.70;80.00;;;;;;4978116;28;20034;-67
2020/12/23 04:12:26;;;;;;;0.73;0.73;;;11.70;79.90;;;;;;4976742;28;20077;-67
2020/12/23 04:14:52;;;;;;;0.68;0.60;;;11.70;79.90;;;;;;4994804;28;20131;-67
2020/12/23 04:17:18;;;;;;;2.60;0.70;;;11.80;80.00;;;;;;4978124;28;20073;-67
2020/12/23 04:19:44;;;;;;;2.33;0.70;;;11.80;80.00;;;;;;4978988;28;20030;-67
2020/12/23 04:22:10;;;;;;;0.43;0.43;;;11.80;79.90;;;;;;4978340;28;20502;-67
2020/12/23 04:24:36;;;;;;;0.50;0.50;;;11.80;79.90;;;;;;4978954;28;20042;-67
2020/12/23 04:27:01;;;;;;;0.52;0.50;;;11.90;79.90;;;;;;4978483;28;20093;-66
2020/12/23 04:29:27;;;;;;;0.77;0.60;;;11.90;79.80;;;;;;4979208;28;20031;-67
2020/12/23 04:31:53;;;;;;;0.70;0.55;;;11.90;79.80;;;;;;4980216;28;20517;-66
2020/12/23 04:34:18;;;;;;;0.43;0.40;;;12.00;79.80;;;;;;4978093;28;21174;-67
2020/12/23 04:36:44;;;;;;;1.75;0.50;;;12.00;79.60;;;;;;4977150;28;20031;-68
2020/12/23 04:39:09;;;;;;;3.10;0.85;;;12.00;79.40;;;;;;4978731;28;20069;-67
2020/12/23 04:41:35;;;;;;;0.73;0.52;;;12.00;79.30;;;;;;4978408;28;20109;-67
2020/12/23 04:44:02;;;;;;;0.80;0.70;;;12.00;79.20;;;;;;4980683;28;20047;-67
2020/12/23 04:46:32;;;;;;;0.70;0.70;;;12.00;79.20;;;;;;4980681;28;20030;-67
2020/12/23 04:48:59;;;;;;;0.70;0.60;;;12.00;79.20;;;;;;4983603;28;20791;-67
2020/12/23 04:51:35;;;;;;;1.48;0.68;;;12.00;79.10;;;;;;4997594;28;20146;-67
2020/12/23 04:54:02;;;;;;;0.75;0.60;;;11.90;78.90;;;;;;4982111;28;20492;-68
2020/12/23 04:56:30;;;;;;;0.90;0.63;;;11.90;78.90;;;;;;4982168;28;20106;-67
2020/12/23 04:58:57;;;;;;;0.65;0.65;;;11.90;78.90;;;;;;4982137;28;20026;-66
2020/12/23 05:01:23;;;;;;;0.60;0.60;;;11.80;78.80;;;;;;4982865;28;20401;-67
2020/12/23 05:03:51;;;;;;;1.30;0.60;;;11.80;78.90;;;;;;4982088;28;20033;-68
2020/12/23 05:06:17;;;;;;;0.95;0.50;;;11.70;78.70;;;;;;4982905;28;20325;-67
2020/12/23 05:08:42;;;;;;;0.70;0.70;;;11.70;79.00;;;;;;4981278;28;20066;-67
2020/12/23 05:11:09;;;;;;;0.88;0.73;;;11.70;79.00;;;;;;4982088;28;20421;-67
2020/12/23 05:13:37;;;;;;;0.65;0.60;;;11.70;79.00;;;;;;4980701;28;20039;-67
2020/12/23 05:16:04;;;;;;;0.80;0.60;;;11.70;79.10;;;;;;4997327;28;20159;-67
2020/12/23 05:18:40;;;;;;;0.60;0.60;;;11.60;79.90;;;;;;4981880;28;20124;-67
2020/12/23 05:21:17;;;;;;;0.80;0.52;;;11.70;79.10;;;;;;4982196;28;20030;-67
2020/12/23 05:23:45;;;;;;;102.57;44.50;;;11.60;79.10;;;;;;4982820;28;20050;-66
2020/12/23 05:26:12;;;;;;;46.47;31.67;;;11.70;79.20;;;;;;4996892;28;20042;-66
2020/12/23 05:28:38;;;;;;;9.77;7.45;;;11.70;79.30;;;;;;4981456;28;20039;-67
2020/12/23 05:31:09;;;;;;;3.42;3.13;;;11.70;79.30;;;;;;4982464;28;20514;-68
2020/12/23 05:33:36;;;;;;;23.92;14.98;;;11.70;79.30;;;;;;4981908;28;20391;-68
2020/12/23 05:36:13;;;;;;;3.35;2.97;;;11.70;79.40;;;;;;4982211;28;20038;-67
2020/12/23 05:38:40;;;;;;;1.30;1.20;;;11.70;79.30;;;;;;4981527;28;20473;-68
2020/12/23 05:41:08;;;;;;;1.02;1.02;;;11.80;79.40;;;;;;4981218;28;20026;-66
2020/12/23 05:43:35;;;;;;;3.38;3.08;;;11.80;79.30;;;;;;4982043;28;20070;-67
2020/12/23 05:46:05;;;;;;;2.20;2.10;;;11.80;79.30;;;;;;4981047;28;20050;-67
2020/12/23 05:48:32;;;;;;;1.98;1.77;;;11.80;79.30;;;;;;4980924;28;20041;-66
2020/12/23 05:50:59;;;;;;;1.95;1.45;;;11.80;79.30;;;;;;4980783;28;20089;-67
2020/12/23 05:53:27;;;;;;;1.55;1.15;;;11.90;79.30;;;;;;4995680;28;20514;-66
2020/12/23 05:55:54;;;;;;;0.55;0.50;;;11.90;79.10;;;;;;4981281;28;20049;-67
2020/12/23 05:58:20;;;;;;;1.20;0.63;;;11.90;79.10;;;;;;4979550;28;20122;-68
2020/12/23 06:00:49;;;;;;;0.73;0.60;;;11.90;79.80;;;;;;4987181;28;20113;-67
2020/12/23 06:03:22;;;;;;;0.57;0.50;;;11.90;78.70;;;;;;4979971;28;20117;-68
2020/12/23 06:05:58;;;;;;;3.70;3.40;;;12.00;78.60;;;;;;4980907;28;20510;-68
2020/12/23 06:08:51;;;;;;;1.80;1.42;;;11.90;79.20;;;;;;4981696;28;20031;-67
2020/12/23 06:11:30;;;;;;;0.68;0.68;;;11.90;78.10;;;;;;4979623;28;20038;-67
2020/12/23 06:14:15;;;;;;;0.45;0.45;;;11.90;78.20;;;;;;4981451;28;20053;-67
2020/12/23 06:16:43;;;;;;;0.68;0.60;;;11.90;78.10;;;;;;4980364;28;20572;-66
2020/12/23 06:19:27;;;;;;;0.93;0.70;;;11.90;78.30;;;;;;4981588;28;20046;-67
2020/12/23 06:21:54;;;;;;;0.50;0.40;;;11.90;78.20;;;;;;4981598;28;20121;-67
2020/12/23 06:24:20;;;;;;;1.00;0.57;;;11.90;78.40;;;;;;4981905;28;20095;-67
2020/12/23 06:26:51;;;;;;;0.90;0.60;;;11.80;78.40;;;;;;4981321;28;20030;-67
2020/12/23 06:29:19;;;;;;;0.60;0.57;;;11.80;78.40;;;;;;4981409;28;20114;-67
2020/12/23 06:31:49;;;;;;;0.60;0.60;;;11.80;78.30;;;;;;4982311;28;20031;-66
2020/12/23 06:34:17;;;;;;;0.60;0.60;;;11.80;78.30;;;;;;4980943;28;20478;-67
2020/12/23 06:36:43;;;;;;;0.55;0.47;;;11.80;78.40;;;;;;4995144;28;20390;-67
2020/12/23 06:39:18;;;;;;;1.90;1.00;;;11.80;79.10;;;;;;4980806;28;20173;-67
2020/12/23 06:42:04;;;;;;;0.60;0.60;;;11.70;78.20;;;;;;4980692;28;20023;-67
2020/12/23 06:44:42;;;;;;;1.17;0.60;;;11.70;78.30;;;;;;4977983;28;20080;-67
2020/12/23 06:47:18;;;;;;;0.73;0.70;;;11.70;78.00;;;;;;4980296;28;20114;-66
2020/12/23 06:49:52;;;;;;;0.90;0.80;;;11.70;78.20;;;;;;4975408;28;21116;-67
2020/12/23 06:52:21;;;;;;;1.20;1.10;;;11.70;78.30;;;;;;4975621;28;20031;-67
2020/12/23 06:54:50;;;;;;;1.33;1.23;;;11.70;78.10;;;;;;4978818;28;20079;-67
2020/12/23 06:57:39;;;;;;;1.10;1.00;;;11.70;78.10;;;;;;4980563;28;20620;-67
2020/12/23 07:00:14;;;;;;;2.53;1.15;;;11.60;77.90;;;;;;4983521;28;20026;-68
2020/12/23 07:02:57;;;;;;;1.15;1.00;;;11.60;78.10;;;;;;4981623;28;21456;-68
2020/12/23 07:05:23;;;;;;;1.35;1.25;;;11.60;77.90;;;;;;4980749;28;20533;-67
2020/12/23 07:07:56;;;;;;;2.15;1.75;;;11.60;78.20;;;;;;4983332;28;20039;-68
2020/12/23 07:10:30;;;;;;;1.50;1.40;;;11.60;78.00;;;;;;4981171;28;20053;-67
2020/12/23 07:12:58;;;;;;;2.05;1.50;;;11.60;78.00;;;;;;4981750;28;20030;-67
2020/12/23 07:15:29;;;;;;;2.65;1.58;;;11.60;78.20;;;;;;4981097;28;20066;-67
2020/12/23 07:18:03;;;;;;;1.92;1.58;;;11.50;78.10;;;;;;4981394;28;20034;-68
2020/12/23 07:20:39;;;;;;;3.10;2.65;;;11.50;78.00;;;;;;4980505;28;20040;-67
2020/12/23 07:23:08;;;;;;;4.25;2.90;;;11.50;78.10;;;;;;4982730;28;20038;-67
2020/12/23 07:25:39;;;;;;;3.45;2.40;;;11.50;78.20;;;;;;4982749;28;20057;-67
2020/12/23 07:28:07;;;;;;;2.80;2.20;;;11.50;78.40;;;;;;4981810;28;20073;-67
2020/12/23 07:30:38;;;;;;;2.35;1.92;;;11.50;78.40;;;;;;4976672;28;20045;-67
2020/12/23 07:33:17;;;;;;;2.53;1.70;;;11.50;78.30;;;;;;4983073;28;20833;-67
2020/12/23 07:36:03;;;;;;;3.85;1.27;;;11.40;78.30;;;;;;4980838;28;20080;-67
2020/12/23 07:38:34;;;;;;;2.40;0.90;;;11.50;78.20;;;;;;4980964;28;20042;-67
2020/12/23 07:41:01;;;;;;;0.90;0.80;;;11.50;78.40;;;;;;4996580;28;20038;-67
2020/12/23 07:43:27;;;;;;;0.70;0.70;;;11.50;78.40;;;;;;4980020;28;20061;-67
2020/12/23 07:45:53;;;;;;;1.00;0.90;;;11.50;78.40;;;;;;4981712;28;20046;-67
2020/12/23 07:48:20;;;;;;;1.42;0.77;;;11.50;78.40;;;;;;4978983;28;20041;-67
2020/12/23 07:50:54;;;;;;;1.27;0.70;;;11.50;78.40;;;;;;4977497;28;20532;-67
2020/12/23 07:53:22;;;;;;;1.30;1.02;;;11.40;78.30;;;;;;4978494;28;20096;-68
2020/12/23 07:55:58;;;;;;;1.60;1.50;;;11.40;78.40;;;;;;4980146;28;20057;-67
2020/12/23 07:58:24;;;;;;;2.20;2.00;;;11.50;78.50;;;;;;4978982;28;20034;-68
2020/12/23 08:00:50;;;;;;;1.30;1.20;;;11.50;78.60;;;;;;4977408;28;20039;-68
2020/12/23 08:03:27;;;;;;;1.20;1.10;;;11.50;78.70;;;;;;4974796;28;20038;-67
2020/12/23 08:06:10;;;;;;;1.45;0.90;;;11.50;79.40;;;;;;4975909;28;20042;-67
2020/12/23 08:08:39;;;;;;;2.75;1.10;;;11.50;78.40;;;;;;4978362;28;20070;-67
2020/12/23 08:11:10;;;;;;;1.35;0.98;;;11.50;78.70;;;;;;4978230;28;20031;-68
2020/12/23 08:13:36;;;;;;;2.00;1.15;;;11.50;78.60;;;;;;4979152;28;20414;-67
2020/12/23 08:16:16;;;;;;;1.85;1.08;;;11.50;78.70;;;;;;4980475;28;20039;-68
2020/12/23 08:18:43;;;;;;;2.03;1.23;;;11.60;78.70;;;;;;4978507;28;20498;-68
2020/12/23 08:21:17;;;;;;;1.83;1.40;;;11.60;78.70;;;;;;4982174;28;20034;-69
2020/12/23 08:23:43;;;;;;;2.35;1.40;;;11.60;78.60;;;;;;4983060;28;20043;-68
2020/12/23 08:26:10;;;;;;;1.65;1.30;;;11.70;78.70;;;;;;4983137;28;20056;-69
2020/12/23 08:28:41;;;;;;;3.40;0.90;;;11.70;78.70;;;;;;4982497;28;20453;-68
2020/12/23 08:31:11;;;;;;;3.10;1.23;;;11.70;78.60;;;;;;4981170;28;20524;-68
2020/12/23 08:33:38;;;;;;;1.92;1.10;;;11.80;78.60;;;;;;4983822;28;20045;-67
2020/12/23 08:36:05;;;;;;;3.13;1.10;;;11.80;78.60;;;;;;4982427;28;20113;-68
2020/12/23 08:38:31;;;;;;;2.00;1.10;;;11.80;78.40;;;;;;4980144;28;20501;-66
2020/12/23 08:40:58;;;;;;;1.67;0.80;;;11.90;78.40;;;;;;4983318;28;20034;-66
2020/12/23 08:43:26;;;;;;;2.00;1.00;;;11.90;78.30;;;;;;4983755;28;20041;-68
2020/12/23 08:45:53;;;;;;;1.70;1.60;;;11.90;78.20;;;;;;4982822;28;20544;-68
2020/12/23 08:48:19;;;;;;;2.35;1.15;;;11.90;78.20;;;;;;4981621;28;20042;-68
2020/12/23 08:50:56;;;;;;;3.17;2.88;;;12.00;78.20;;;;;;4983293;28;20042;-68
2020/12/23 08:53:33;;;;;;;4.93;2.90;;;12.00;77.80;;;;;;4997375;28;20057;-68
2020/12/23 08:56:00;;;;;;;3.28;2.88;;;12.00;77.60;;;;;;4984386;28;20057;-68
2020/12/23 08:58:26;;;;;;;4.03;2.97;;;12.10;77.90;;;;;;4984063;28;20042;-67
2020/12/23 09:01:02;;;;;;;2.20;2.00;;;12.10;77.90;;;;;;4982893;28;20046;-68
2020/12/23 09:03:28;;;;;;;2.05;1.85;;;12.10;77.70;;;;;;4983064;28;20461;-68
2020/12/23 09:05:58;;;;;;;2.45;2.15;;;12.10;77.90;;;;;;4982948;28;20082;-67
2020/12/23 09:08:26;;;;;;;2.65;1.58;;;12.20;78.80;;;;;;4980398;28;20034;-68
2020/12/23 09:10:57;;;;;;;1.98;1.77;;;12.10;77.90;;;;;;4981779;28;20298;-67
2020/12/23 09:13:31;;;;;;;2.10;1.90;;;12.20;77.70;;;;;;4982541;28;20038;-68
2020/12/23 09:16:00;;;;;;;1.20;1.10;;;12.20;77.50;;;;;;4981169;28;20058;-67
2020/12/23 09:18:26;;;;;;;1.00;0.70;;;12.20;77.60;;;;;;4980989;28;20547;-67
2020/12/23 09:20:59;;;;;;;1.52;0.80;;;12.30;77.50;;;;;;4981143;28;20034;-67
2020/12/23 09:23:25;;;;;;;0.60;0.60;;;12.30;77.30;;;;;;4983551;28;20029;-67
2020/12/23 09:25:51;;;;;;;0.50;0.50;;;12.30;77.50;;;;;;4983374;28;20041;-66
2020/12/23 09:28:16;;;;;;;0.90;0.63;;;12.40;77.50;;;;;;4987112;28;20042;-67
2020/12/23 09:30:42;;;;;;;0.95;0.50;;;12.40;77.30;;;;;;4981572;28;20042;-67
2020/12/23 09:33:19;;;;;;;0.95;0.80;;;12.40;77.20;;;;;;4985774;28;20031;-66
2020/12/23 09:35:50;;;;;;;0.70;0.70;;;12.50;76.70;;;;;;4996565;28;20379;-67
2020/12/23 09:38:24;;;;;;;0.90;0.50;;;12.50;76.90;;;;;;4983071;28;20054;-66
2020/12/23 09:40:58;;;;;;;0.50;0.50;;;12.60;76.50;;;;;;4981700;28;20100;-66
2020/12/23 09:43:28;;;;;;;0.60;0.60;;;12.60;76.60;;;;;;4982732;28;20422;-67
2020/12/23 09:45:59;;;;;;;1.60;0.70;;;12.70;76.80;;;;;;4981583;28;20097;-66
2020/12/23 09:48:26;;;;;;;0.65;0.63;;;12.70;76.80;;;;;;4980563;28;20046;-67
2020/12/23 09:50:55;;;;;;;0.90;0.70;;;12.80;77.80;;;;;;4981886;28;20046;-66
2020/12/23 09:53:22;;;;;;;0.95;0.70;;;12.80;77.00;;;;;;4980560;28;20086;-66
2020/12/23 09:55:48;;;;;;;0.98;0.85;;;12.90;76.80;;;;;;4981224;28;20050;-66
2020/12/23 09:58:14;;;;;;;1.25;1.13;;;12.90;76.80;;;;;;4981865;28;20030;-67
2020/12/23 10:00:41;;;;;;;2.10;1.45;;;13.00;76.50;;;;;;4976371;28;20097;-66
2020/12/23 10:03:08;;;;;;;1.40;1.17;;;13.00;76.30;;;;;;4980963;28;20039;-66
2020/12/23 10:05:34;;;;;;;3.05;1.20;;;13.00;76.10;;;;;;4980463;28;20510;-64
2020/12/23 10:08:03;;;;;;;1.98;1.00;;;13.10;75.90;;;;;;4979980;28;20038;-66
2020/12/23 10:10:29;;;;;;;1.15;0.90;;;13.20;76.00;;;;;;4980520;28;20042;-66
2020/12/23 10:12:55;;;;;;;1.08;0.70;;;13.20;76.00;;;;;;4980194;28;20034;-66
2020/12/23 10:15:20;;;;;;;2.20;1.25;;;13.20;76.00;;;;;;4980137;28;20045;-66
2020/12/23 10:17:46;;;;;;;2.45;1.70;;;13.30;76.00;;;;;;4984282;28;20038;-67
2020/12/23 10:20:12;;;;;;;2.10;1.80;;;13.30;75.90;;;;;;4981701;28;20341;-66
2020/12/23 10:22:38;;;;;;;1.80;1.20;;;13.40;75.80;;;;;;4981223;28;20042;-67
2020/12/23 10:25:06;;;;;;;1.92;0.98;;;13.40;75.60;;;;;;4981330;28;20093;-66
2020/12/23 10:27:32;;;;;;;2.00;1.25;;;13.50;75.60;;;;;;4985187;28;20064;-67
2020/12/23 10:29:58;;;;;;;1.92;1.20;;;13.50;75.50;;;;;;4981651;28;20046;-66
2020/12/23 10:32:24;;;;;;;1.83;1.40;;;13.50;75.40;;;;;;4979070;28;20137;-66
2020/12/23 10:34:51;;;;;;;3.13;1.40;;;13.50;75.30;;;;;;4980986;28;20125;-67
2020/12/23 10:37:20;;;;;;;2.42;1.50;;;13.50;75.20;;;;;;4986148;28;20054;-66
2020/12/23 10:39:46;;;;;;;1.60;1.50;;;13.50;75.10;;;;;;4981078;28;20038;-65
2020/12/23 10:42:12;;;;;;;2.60;1.30;;;13.50;75.00;;;;;;4980244;28;20030;-67
2020/12/23 10:44:38;;;;;;;2.28;1.20;;;13.60;75.10;;;;;;4981424;28;20403;-67
2020/12/23 10:47:03;;;;;;;2.28;1.80;;;13.50;75.10;;;;;;4982427;28;20065;-67
2020/12/23 10:49:30;;;;;;;3.28;2.72;;;13.60;75.10;;;;;;4979155;28;20514;-67
2020/12/23 10:51:57;;;;;;;2.72;2.45;;;13.50;75.10;;;;;;4981017;28;20085;-67
2020/12/23 10:54:27;;;;;;;1.67;1.50;;;13.60;75.20;;;;;;4980657;28;20257;-66
2020/12/23 10:56:53;;;;;;;2.67;2.45;;;13.60;74.90;;;;;;4981700;28;20053;-64
2020/12/23 10:59:19;;;;;;;2.55;1.98;;;13.60;75.90;;;;;;4980655;28;20026;-67
2020/12/23 11:01:45;;;;;;;2.58;2.00;;;13.60;75.10;;;;;;4981222;28;20566;-66
2020/12/23 11:04:11;;;;;;;5.47;3.80;;;13.60;75.10;;;;;;4997410;28;20034;-67
2020/12/23 11:06:37;;;;;;;3.88;2.33;;;13.60;75.10;;;;;;4980496;28;20033;-67
2020/12/23 11:09:03;;;;;;;3.08;2.10;;;13.60;74.90;;;;;;4980476;28;20018;-67
2020/12/23 11:11:29;;;;;;;2.13;1.48;;;13.60;74.90;;;;;;4979208;28;20046;-67
2020/12/23 11:13:55;;;;;;;1.55;1.15;;;13.50;74.80;;;;;;4981331;28;20522;-66
2020/12/23 11:16:21;;;;;;;1.92;1.40;;;13.50;74.80;;;;;;4980388;28;20050;-68
2020/12/23 11:18:47;;;;;;;2.95;1.17;;;13.60;74.90;;;;;;4980545;28;20507;-66
2020/12/23 11:21:14;;;;;;;1.45;0.90;;;13.60;74.90;;;;;;4981342;28;20076;-66
2020/12/23 11:23:41;;;;;;;1.20;1.00;;;13.60;74.80;;;;;;4980264;28;20633;-67
2020/12/23 11:26:18;;;;;;;2.25;0.90;;;13.60;74.70;;;;;;4979359;28;20070;-67
2020/12/23 11:28:44;;;;;;;1.92;1.20;;;13.60;74.30;;;;;;4978372;28;20053;-67
2020/12/23 11:31:12;;;;;;;1.52;1.30;;;13.70;74.50;;;;;;4980848;28;20027;-67
2020/12/23 11:33:37;;;;;;;3.35;1.75;;;13.70;74.50;;;;;;4979711;28;20037;-66
2020/12/23 11:36:03;;;;;;;1.88;1.17;;;13.70;74.30;;;;;;4979946;28;20042;-66
2020/12/23 11:38:29;;;;;;;2.83;2.60;;;13.70;74.10;;;;;;4979055;28;20046;-66
2020/12/23 11:40:54;;;;;;;3.28;1.90;;;13.70;74.00;;;;;;4980198;28;20124;-67
2020/12/23 11:43:20;;;;;;;1.90;1.60;;;13.70;74.80;;;;;;4978394;28;20027;-67
2020/12/23 11:45:46;;;;;;;143.32;51.80;;;13.70;73.90;;;;;;4980384;28;20042;-67
2020/12/23 11:48:11;;;;;;;81.60;31.05;;;13.70;73.80;;;;;;4979969;28;20030;-67
2020/12/23 11:50:37;;;;;;;46.53;21.52;;;13.70;73.80;;;;;;4978318;28;20035;-67
2020/12/23 11:53:03;;;;;;;31.27;17.70;;;13.80;73.80;;;;;;4978937;28;20110;-67
2020/12/23 11:55:29;;;;;;;40.33;23.13;;;13.80;73.80;;;;;;4981549;28;20541;-68
2020/12/23 11:57:54;;;;;;;27.55;16.50;;;13.80;73.80;;;;;;4978770;28;20035;-66
2020/12/23 12:00:20;;;;;;;15.32;8.90;;;13.80;73.80;;;;;;4978912;28;20117;-67
2020/12/23 12:02:46;;;;;;;6.78;4.57;;;13.80;73.90;;;;;;4980046;28;20077;-67
2020/12/23 12:05:11;;;;;;;16.38;10.63;;;13.80;73.70;;;;;;4980794;28;20037;-67
2020/12/23 12:07:37;;;;;;;6.75;4.70;;;13.90;73.70;;;;;;4979493;28;20035;-67
2020/12/23 12:10:05;;;;;;;6.90;5.13;;;13.90;73.70;;;;;;4980746;28;20503;-67
2020/12/23 12:12:31;;;;;;;27.33;19.13;;;13.90;73.50;;;;;;4977780;28;20046;-68
2020/12/23 12:14:57;;;;;;;7.20;4.50;;;13.90;73.50;;;;;;4979214;28;20038;-67
2020/12/23 12:17:23;;;;;;;4.45;3.20;;;13.90;73.50;;;;;;4980184;28;20035;-67
2020/12/23 12:19:53;;;;;;;5.78;3.92;;;13.90;73.50;;;;;;4980107;28;20062;-68
2020/12/23 12:22:19;;;;;;;3.92;2.95;;;14.00;73.30;;;;;;4978791;28;20162;-67
2020/12/23 12:24:44;;;;;;;4.43;3.20;;;14.00;74.30;;;;;;4979880;28;20200;-66
2020/12/23 12:27:10;;;;;;;4.93;3.40;;;14.00;73.30;;;;;;4981805;28;20572;-67
2020/12/23 12:29:37;;;;;;;3.58;2.53;;;14.00;73.40;;;;;;4979895;28;20031;-67
2020/12/23 12:32:02;;;;;;;2.05;1.73;;;14.00;73.30;;;;;;4981089;28;20039;-67
2020/12/23 12:34:28;;;;;;;2.17;1.20;;;14.00;74.10;;;;;;4978963;28;20057;-67
2020/12/23 12:36:55;;;;;;;1.25;1.10;;;14.00;73.20;;;;;;4980409;28;20031;-67
2020/12/23 12:39:21;;;;;;;1.17;0.98;;;14.00;73.10;;;;;;4978754;28;20600;-67
2020/12/23 12:41:49;;;;;;;2.13;1.60;;;14.00;73.10;;;;;;4979197;28;20136;-67
2020/12/23 12:44:14;;;;;;;3.60;2.10;;;14.00;73.20;;;;;;4979965;28;20510;-67
2020/12/23 12:46:40;;;;;;;6.10;2.70;;;14.00;72.80;;;;;;4979136;28;20049;-67
2020/12/23 12:49:06;;;;;;;8.98;3.65;;;14.00;72.90;;;;;;4979277;28;20034;-67